sensor_id;sensor_type;location;lat;lon;timestamp;temperature;humidity
47354;DHT22;50657;48.830;2.282;2022-09-27T00:00:58;21.70;50.50
47354;DHT22;50657;48.830;2.282;2022-09-27T00:03:25;21.70;50.50
47354;DHT22;50657;48.830;2.282;2022-09-27T00:06:00;21.70;50.50
47354;DHT22;50657;48.830;2.282;2022-09-27T00:08:31;21.70;50.40
47354;DHT22;50657;48.830;2.282;2022-09-27T00:10:59;21.70;50.50
47354;DHT22;50657;48.830;2.282;2022-09-27T00:13:27;21.70;50.40
47354;DHT22;50657;48.830;2.282;2022-09-27T00:15:59;21.70;50.40
47354;DHT22;50657;48.830;2.282;2022-09-27T00:18:29;21.70;50.30
47354;DHT22;50657;48.830;2.282;2022-09-27T00:21:03;21.60;50.30
47354;DHT22;50657;48.830;2.282;2022-09-27T00:23:31;21.70;50.40
47354;DHT22;50657;48.830;2.282;2022-09-27T00:25:59;21.60;50.20
47354;DHT22;50657;48.830;2.282;2022-09-27T00:28:27;21.60;50.20
47354;DHT22;50657;48.830;2.282;2022-09-27T00:30:54;21.60;50.20
47354;DHT22;50657;48.830;2.282;2022-09-27T00:33:22;21.60;50.20
47354;DHT22;50657;48.830;2.282;2022-09-27T00:35:49;21.60;50.20
47354;DHT22;50657;48.830;2.282;2022-09-27T00:38:16;21.60;50.20
47354;DHT22;50657;48.830;2.282;2022-09-27T00:40:44;21.60;50.20
47354;DHT22;50657;48.830;2.282;2022-09-27T00:43:16;21.60;50.20
47354;DHT22;50657;48.830;2.282;2022-09-27T00:45:47;21.60;50.20
47354;DHT22;50657;48.830;2.282;2022-09-27T00:48:18;21.60;50.20
47354;DHT22;50657;48.830;2.282;2022-09-27T00:50:53;21.60;50.20
47354;DHT22;50657;48.830;2.282;2022-09-27T00:53:25;21.50;50.20
47354;DHT22;50657;48.830;2.282;2022-09-27T00:55:57;21.50;50.20
47354;DHT22;50657;48.830;2.282;2022-09-27T00:58:28;21.50;50.30
47354;DHT22;50657;48.830;2.282;2022-09-27T01:00:59;21.50;50.20
47354;DHT22;50657;48.830;2.282;2022-09-27T01:03:41;21.50;50.20
47354;DHT22;50657;48.830;2.282;2022-09-27T01:06:11;21.60;50.20
47354;DHT22;50657;48.830;2.282;2022-09-27T01:08:39;21.50;50.30
47354;DHT22;50657;48.830;2.282;2022-09-27T01:11:13;21.50;50.30
47354;DHT22;50657;48.830;2.282;2022-09-27T01:13:48;21.50;50.30
47354;DHT22;50657;48.830;2.282;2022-09-27T01:16:25;21.50;50.30
47354;DHT22;50657;48.830;2.282;2022-09-27T01:19:06;21.50;50.50
47354;DHT22;50657;48.830;2.282;2022-09-27T01:25:03;21.50;50.40
47354;DHT22;50657;48.830;2.282;2022-09-27T01:27:57;21.50;50.50
47354;DHT22;50657;48.830;2.282;2022-09-27T01:30:27;21.50;50.60
47354;DHT22;50657;48.830;2.282;2022-09-27T01:33:08;21.40;51.10
47354;DHT22;50657;48.830;2.282;2022-09-27T01:35:45;21.40;50.50
47354;DHT22;50657;48.830;2.282;2022-09-27T01:38:22;21.40;50.60
47354;DHT22;50657;48.830;2.282;2022-09-27T01:40:56;21.40;50.60
47354;DHT22;50657;48.830;2.282;2022-09-27T01:43:46;21.40;50.70
47354;DHT22;50657;48.830;2.282;2022-09-27T01:46:24;21.40;50.70
47354;DHT22;50657;48.830;2.282;2022-09-27T01:49:09;21.40;50.70
47354;DHT22;50657;48.830;2.282;2022-09-27T01:51:41;21.40;50.70
47354;DHT22;50657;48.830;2.282;2022-09-27T01:54:14;21.40;50.60
47354;DHT22;50657;48.830;2.282;2022-09-27T01:57:01;21.40;50.70
47354;DHT22;50657;48.830;2.282;2022-09-27T01:59:37;21.30;50.60
47354;DHT22;50657;48.830;2.282;2022-09-27T02:02:35;21.40;50.60
47354;DHT22;50657;48.830;2.282;2022-09-27T02:05:38;21.30;50.60
47354;DHT22;50657;48.830;2.282;2022-09-27T02:08:33;21.30;50.70
47354;DHT22;50657;48.830;2.282;2022-09-27T02:11:10;21.30;50.70
47354;DHT22;50657;48.830;2.282;2022-09-27T02:13:46;21.30;50.70
47354;DHT22;50657;48.830;2.282;2022-09-27T02:16:41;21.30;50.70
47354;DHT22;50657;48.830;2.282;2022-09-27T02:19:23;21.30;50.80
47354;DHT22;50657;48.830;2.282;2022-09-27T02:21:56;21.30;50.80
47354;DHT22;50657;48.830;2.282;2022-09-27T02:24:34;21.30;50.80
47354;DHT22;50657;48.830;2.282;2022-09-27T02:27:11;21.30;50.70
47354;DHT22;50657;48.830;2.282;2022-09-27T02:29:46;21.30;50.70
47354;DHT22;50657;48.830;2.282;2022-09-27T02:32:16;21.30;50.70
47354;DHT22;50657;48.830;2.282;2022-09-27T02:34:45;21.30;50.70
47354;DHT22;50657;48.830;2.282;2022-09-27T02:37:13;21.20;50.60
47354;DHT22;50657;48.830;2.282;2022-09-27T02:39:40;21.30;50.70
47354;DHT22;50657;48.830;2.282;2022-09-27T02:42:08;21.30;50.70
47354;DHT22;50657;48.830;2.282;2022-09-27T02:44:37;21.20;50.60
47354;DHT22;50657;48.830;2.282;2022-09-27T02:47:17;21.20;50.60
47354;DHT22;50657;48.830;2.282;2022-09-27T02:50:02;21.20;50.60
47354;DHT22;50657;48.830;2.282;2022-09-27T02:52:51;21.20;50.60
47354;DHT22;50657;48.830;2.282;2022-09-27T02:55:28;21.20;50.60
47354;DHT22;50657;48.830;2.282;2022-09-27T02:58:08;21.20;50.70
47354;DHT22;50657;48.830;2.282;2022-09-27T03:00:57;21.20;51.20
47354;DHT22;50657;48.830;2.282;2022-09-27T03:03:54;21.20;50.60
47354;DHT22;50657;48.830;2.282;2022-09-27T03:06:27;21.10;50.60
47354;DHT22;50657;48.830;2.282;2022-09-27T03:08:55;21.10;50.60
47354;DHT22;50657;48.830;2.282;2022-09-27T03:11:23;21.20;51.00
47354;DHT22;50657;48.830;2.282;2022-09-27T03:13:50;21.20;50.60
47354;DHT22;50657;48.830;2.282;2022-09-27T03:16:17;21.10;50.60
47354;DHT22;50657;48.830;2.282;2022-09-27T03:19:07;21.10;50.60
47354;DHT22;50657;48.830;2.282;2022-09-27T03:21:54;21.10;50.60
47354;DHT22;50657;48.830;2.282;2022-09-27T03:24:22;21.10;50.60
47354;DHT22;50657;48.830;2.282;2022-09-27T03:26:49;21.10;50.60
47354;DHT22;50657;48.830;2.282;2022-09-27T03:29:17;21.10;50.50
47354;DHT22;50657;48.830;2.282;2022-09-27T03:31:49;21.10;50.50
47354;DHT22;50657;48.830;2.282;2022-09-27T03:34:31;21.10;50.60
47354;DHT22;50657;48.830;2.282;2022-09-27T03:36:59;21.10;50.60
47354;DHT22;50657;48.830;2.282;2022-09-27T03:39:26;21.10;50.60
47354;DHT22;50657;48.830;2.282;2022-09-27T03:41:54;21.10;50.50
47354;DHT22;50657;48.830;2.282;2022-09-27T03:44:21;21.10;50.50
47354;DHT22;50657;48.830;2.282;2022-09-27T03:46:48;21.10;50.50
47354;DHT22;50657;48.830;2.282;2022-09-27T03:49:15;21.10;50.50
47354;DHT22;50657;48.830;2.282;2022-09-27T03:51:42;21.20;50.60
47354;DHT22;50657;48.830;2.282;2022-09-27T03:54:11;21.10;50.50
47354;DHT22;50657;48.830;2.282;2022-09-27T03:56:38;21.10;50.50
47354;DHT22;50657;48.830;2.282;2022-09-27T03:59:05;21.10;50.50
47354;DHT22;50657;48.830;2.282;2022-09-27T04:01:52;21.10;50.50
47354;DHT22;50657;48.830;2.282;2022-09-27T04:04:40;21.10;50.50
47354;DHT22;50657;48.830;2.282;2022-09-27T04:07:10;21.10;50.50
47354;DHT22;50657;48.830;2.282;2022-09-27T04:09:38;21.10;50.50
47354;DHT22;50657;48.830;2.282;2022-09-27T04:12:07;21.10;50.50
47354;DHT22;50657;48.830;2.282;2022-09-27T04:14:35;21.10;50.50
47354;DHT22;50657;48.830;2.282;2022-09-27T04:17:39;21.10;50.50
47354;DHT22;50657;48.830;2.282;2022-09-27T04:20:34;21.10;50.50
47354;DHT22;50657;48.830;2.282;2022-09-27T04:23:11;21.10;50.60
47354;DHT22;50657;48.830;2.282;2022-09-27T04:25:45;21.00;50.50
47354;DHT22;50657;48.830;2.282;2022-09-27T04:28:20;21.00;50.50
47354;DHT22;50657;48.830;2.282;2022-09-27T04:30:48;21.00;51.10
47354;DHT22;50657;48.830;2.282;2022-09-27T04:33:34;21.10;50.50
47354;DHT22;50657;48.830;2.282;2022-09-27T04:36:25;21.00;50.50
47354;DHT22;50657;48.830;2.282;2022-09-27T04:39:03;21.00;50.50
47354;DHT22;50657;48.830;2.282;2022-09-27T04:41:34;21.10;50.60
47354;DHT22;50657;48.830;2.282;2022-09-27T04:44:02;21.00;50.50
47354;DHT22;50657;48.830;2.282;2022-09-27T04:46:31;21.00;50.50
47354;DHT22;50657;48.830;2.282;2022-09-27T04:48:59;21.00;50.50
47354;DHT22;50657;48.830;2.282;2022-09-27T04:51:28;21.00;50.50
47354;DHT22;50657;48.830;2.282;2022-09-27T04:53:56;21.00;50.50
47354;DHT22;50657;48.830;2.282;2022-09-27T04:56:27;21.00;50.50
47354;DHT22;50657;48.830;2.282;2022-09-27T04:58:55;21.00;50.50
47354;DHT22;50657;48.830;2.282;2022-09-27T05:01:23;21.00;50.60
47354;DHT22;50657;48.830;2.282;2022-09-27T05:03:56;21.00;50.60
47354;DHT22;50657;48.830;2.282;2022-09-27T05:06:24;21.00;50.60
47354;DHT22;50657;48.830;2.282;2022-09-27T05:08:54;21.10;50.60
47354;DHT22;50657;48.830;2.282;2022-09-27T05:11:25;21.00;50.50
47354;DHT22;50657;48.830;2.282;2022-09-27T05:14:25;21.10;50.60
47354;DHT22;50657;48.830;2.282;2022-09-27T05:17:11;21.10;51.30
47354;DHT22;50657;48.830;2.282;2022-09-27T05:20:05;21.00;50.60
47354;DHT22;50657;48.830;2.282;2022-09-27T05:22:42;21.00;50.70
47354;DHT22;50657;48.830;2.282;2022-09-27T05:25:09;21.00;50.70
47354;DHT22;50657;48.830;2.282;2022-09-27T05:27:36;21.00;50.70
47354;DHT22;50657;48.830;2.282;2022-09-27T05:30:06;21.00;50.80
47354;DHT22;50657;48.830;2.282;2022-09-27T05:32:42;21.00;50.80
47354;DHT22;50657;48.830;2.282;2022-09-27T05:35:25;20.90;50.80
47354;DHT22;50657;48.830;2.282;2022-09-27T05:37:53;21.00;50.90
47354;DHT22;50657;48.830;2.282;2022-09-27T05:40:22;20.90;50.90
47354;DHT22;50657;48.830;2.282;2022-09-27T05:42:50;20.90;51.00
47354;DHT22;50657;48.830;2.282;2022-09-27T05:45:20;20.90;51.00
47354;DHT22;50657;48.830;2.282;2022-09-27T05:47:55;20.90;51.10
47354;DHT22;50657;48.830;2.282;2022-09-27T05:50:23;20.90;51.10
47354;DHT22;50657;48.830;2.282;2022-09-27T05:52:50;20.90;51.20
47354;DHT22;50657;48.830;2.282;2022-09-27T05:55:18;20.90;51.50
47354;DHT22;50657;48.830;2.282;2022-09-27T05:57:56;20.90;51.80
47354;DHT22;50657;48.830;2.282;2022-09-27T06:00:30;20.90;52.00
47354;DHT22;50657;48.830;2.282;2022-09-27T06:03:00;21.00;52.00
47354;DHT22;50657;48.830;2.282;2022-09-27T06:06:00;21.10;52.10
47354;DHT22;50657;48.830;2.282;2022-09-27T06:08:37;21.10;52.20
47354;DHT22;50657;48.830;2.282;2022-09-27T06:11:06;21.20;52.30
47354;DHT22;50657;48.830;2.282;2022-09-27T06:13:34;21.20;52.30
47354;DHT22;50657;48.830;2.282;2022-09-27T06:16:03;21.30;52.50
47354;DHT22;50657;48.830;2.282;2022-09-27T06:18:32;21.30;52.70
47354;DHT22;50657;48.830;2.282;2022-09-27T06:20:59;21.50;52.80
47354;DHT22;50657;48.830;2.282;2022-09-27T06:23:28;21.60;52.90
47354;DHT22;50657;48.830;2.282;2022-09-27T06:26:00;21.60;52.70
47354;DHT22;50657;48.830;2.282;2022-09-27T06:28:49;21.80;52.60
47354;DHT22;50657;48.830;2.282;2022-09-27T06:31:18;22.00;52.50
47354;DHT22;50657;48.830;2.282;2022-09-27T06:33:49;22.10;52.20
47354;DHT22;50657;48.830;2.282;2022-09-27T06:36:17;22.20;51.80
47354;DHT22;50657;48.830;2.282;2022-09-27T06:38:45;22.40;51.50
47354;DHT22;50657;48.830;2.282;2022-09-27T06:41:17;22.60;51.20
47354;DHT22;50657;48.830;2.282;2022-09-27T06:44:05;22.70;50.80
47354;DHT22;50657;48.830;2.282;2022-09-27T06:47:02;22.90;50.40
47354;DHT22;50657;48.830;2.282;2022-09-27T06:49:44;23.00;50.10
47354;DHT22;50657;48.830;2.282;2022-09-27T06:52:13;23.20;49.80
47354;DHT22;50657;48.830;2.282;2022-09-27T06:54:40;23.30;49.30
47354;DHT22;50657;48.830;2.282;2022-09-27T06:57:07;23.40;48.90
47354;DHT22;50657;48.830;2.282;2022-09-27T06:59:34;23.60;48.60
47354;DHT22;50657;48.830;2.282;2022-09-27T07:02:39;23.70;48.30
47354;DHT22;50657;48.830;2.282;2022-09-27T07:05:16;23.80;48.00
47354;DHT22;50657;48.830;2.282;2022-09-27T07:07:57;23.90;47.70
47354;DHT22;50657;48.830;2.282;2022-09-27T07:10:26;24.00;47.30
47354;DHT22;50657;48.830;2.282;2022-09-27T07:12:54;24.10;47.00
47354;DHT22;50657;48.830;2.282;2022-09-27T07:15:23;24.30;46.80
47354;DHT22;50657;48.830;2.282;2022-09-27T07:17:57;24.40;46.40
47354;DHT22;50657;48.830;2.282;2022-09-27T07:20:26;24.50;46.10
47354;DHT22;50657;48.830;2.282;2022-09-27T07:22:54;24.50;45.90
47354;DHT22;50657;48.830;2.282;2022-09-27T07:25:21;24.50;45.70
47354;DHT22;50657;48.830;2.282;2022-09-27T07:27:49;24.40;45.50
47354;DHT22;50657;48.830;2.282;2022-09-27T07:30:19;24.50;45.50
47354;DHT22;50657;48.830;2.282;2022-09-27T07:32:46;24.60;45.20
47354;DHT22;50657;48.830;2.282;2022-09-27T07:35:14;24.80;44.90
47354;DHT22;50657;48.830;2.282;2022-09-27T07:37:43;24.90;44.40
47354;DHT22;50657;48.830;2.282;2022-09-27T07:40:11;25.10;44.20
47354;DHT22;50657;48.830;2.282;2022-09-27T07:42:38;25.20;44.00
47354;DHT22;50657;48.830;2.282;2022-09-27T07:45:07;25.30;43.80
47354;DHT22;50657;48.830;2.282;2022-09-27T07:47:48;25.30;43.50
47354;DHT22;50657;48.830;2.282;2022-09-27T07:50:39;25.40;43.50
47354;DHT22;50657;48.830;2.282;2022-09-27T07:53:36;25.40;43.30
47354;DHT22;50657;48.830;2.282;2022-09-27T07:56:23;25.40;43.20
47354;DHT22;50657;48.830;2.282;2022-09-27T07:58:50;25.50;43.20
47354;DHT22;50657;48.830;2.282;2022-09-27T08:01:18;25.50;43.10
47354;DHT22;50657;48.830;2.282;2022-09-27T08:03:46;25.50;43.10
47354;DHT22;50657;48.830;2.282;2022-09-27T08:06:16;25.50;43.00
47354;DHT22;50657;48.830;2.282;2022-09-27T08:08:44;25.50;42.90
47354;DHT22;50657;48.830;2.282;2022-09-27T08:11:13;25.50;42.90
47354;DHT22;50657;48.830;2.282;2022-09-27T08:13:43;25.60;42.90
47354;DHT22;50657;48.830;2.282;2022-09-27T08:16:10;25.60;42.80
47354;DHT22;50657;48.830;2.282;2022-09-27T08:19:02;25.60;42.80
47354;DHT22;50657;48.830;2.282;2022-09-27T08:22:06;25.60;42.70
47354;DHT22;50657;48.830;2.282;2022-09-27T08:24:42;25.70;42.80
47354;DHT22;50657;48.830;2.282;2022-09-27T08:27:18;25.70;42.80
47354;DHT22;50657;48.830;2.282;2022-09-27T08:29:47;25.70;42.70
47354;DHT22;50657;48.830;2.282;2022-09-27T08:32:16;25.60;42.50
47354;DHT22;50657;48.830;2.282;2022-09-27T08:34:44;25.50;42.40
47354;DHT22;50657;48.830;2.282;2022-09-27T08:37:13;25.40;43.10
47354;DHT22;50657;48.830;2.282;2022-09-27T08:39:40;25.30;42.60
47354;DHT22;50657;48.830;2.282;2022-09-27T08:42:19;25.20;42.90
47354;DHT22;50657;48.830;2.282;2022-09-27T08:44:58;25.10;43.00
47354;DHT22;50657;48.830;2.282;2022-09-27T08:47:30;24.90;43.20
47354;DHT22;50657;48.830;2.282;2022-09-27T08:50:03;24.90;43.50
47354;DHT22;50657;48.830;2.282;2022-09-27T08:52:37;24.80;43.60
47354;DHT22;50657;48.830;2.282;2022-09-27T08:55:18;24.70;43.70
47354;DHT22;50657;48.830;2.282;2022-09-27T08:57:51;24.70;43.90
47354;DHT22;50657;48.830;2.282;2022-09-27T09:00:19;24.60;44.30
47354;DHT22;50657;48.830;2.282;2022-09-27T09:02:47;24.60;44.40
47354;DHT22;50657;48.830;2.282;2022-09-27T09:05:18;24.60;44.40
47354;DHT22;50657;48.830;2.282;2022-09-27T09:08:01;24.60;44.40
47354;DHT22;50657;48.830;2.282;2022-09-27T09:10:40;24.70;44.30
47354;DHT22;50657;48.830;2.282;2022-09-27T09:13:47;24.70;44.40
47354;DHT22;50657;48.830;2.282;2022-09-27T09:16:24;24.70;44.40
47354;DHT22;50657;48.830;2.282;2022-09-27T09:19:09;24.60;44.40
47354;DHT22;50657;48.830;2.282;2022-09-27T09:22:17;24.50;44.50
47354;DHT22;50657;48.830;2.282;2022-09-27T09:25:02;24.40;44.70
47354;DHT22;50657;48.830;2.282;2022-09-27T09:27:36;24.40;44.80
47354;DHT22;50657;48.830;2.282;2022-09-27T09:30:20;24.30;44.70
47354;DHT22;50657;48.830;2.282;2022-09-27T09:33:10;24.20;44.70
47354;DHT22;50657;48.830;2.282;2022-09-27T09:35:44;24.20;45.00
47354;DHT22;50657;48.830;2.282;2022-09-27T09:38:18;24.10;45.00
47354;DHT22;50657;48.830;2.282;2022-09-27T09:40:53;24.10;45.60
47354;DHT22;50657;48.830;2.282;2022-09-27T09:43:25;24.10;45.10
47354;DHT22;50657;48.830;2.282;2022-09-27T09:46:01;24.00;45.10
47354;DHT22;50657;48.830;2.282;2022-09-27T09:48:33;23.90;45.10
47354;DHT22;50657;48.830;2.282;2022-09-27T09:51:06;23.90;45.20
47354;DHT22;50657;48.830;2.282;2022-09-27T09:53:39;23.90;45.20
47354;DHT22;50657;48.830;2.282;2022-09-27T09:56:14;23.80;45.20
47354;DHT22;50657;48.830;2.282;2022-09-27T09:58:46;23.90;45.40
47354;DHT22;50657;48.830;2.282;2022-09-27T10:01:20;23.90;45.40
47354;DHT22;50657;48.830;2.282;2022-09-27T10:03:49;23.90;45.30
47354;DHT22;50657;48.830;2.282;2022-09-27T10:06:17;23.90;45.20
47354;DHT22;50657;48.830;2.282;2022-09-27T10:08:45;23.90;45.10
47354;DHT22;50657;48.830;2.282;2022-09-27T10:11:35;23.90;45.10
47354;DHT22;50657;48.830;2.282;2022-09-27T10:14:11;23.80;44.90
47354;DHT22;50657;48.830;2.282;2022-09-27T10:16:40;23.80;44.90
47354;DHT22;50657;48.830;2.282;2022-09-27T10:19:08;23.80;44.80
47354;DHT22;50657;48.830;2.282;2022-09-27T10:21:40;23.80;44.80
47354;DHT22;50657;48.830;2.282;2022-09-27T10:24:09;23.80;44.80
47354;DHT22;50657;48.830;2.282;2022-09-27T10:27:01;23.80;44.80
47354;DHT22;50657;48.830;2.282;2022-09-27T10:29:32;23.70;44.80
47354;DHT22;50657;48.830;2.282;2022-09-27T10:32:01;23.70;44.80
47354;DHT22;50657;48.830;2.282;2022-09-27T10:34:40;23.70;44.70
47354;DHT22;50657;48.830;2.282;2022-09-27T10:37:16;23.70;44.80
47354;DHT22;50657;48.830;2.282;2022-09-27T10:40:26;23.70;44.80
47354;DHT22;50657;48.830;2.282;2022-09-27T10:42:57;23.70;44.90
47354;DHT22;50657;48.830;2.282;2022-09-27T10:45:35;23.60;45.00
47354;DHT22;50657;48.830;2.282;2022-09-27T10:48:18;23.60;45.30
47354;DHT22;50657;48.830;2.282;2022-09-27T10:50:56;23.50;45.30
47354;DHT22;50657;48.830;2.282;2022-09-27T10:53:35;23.60;45.50
47354;DHT22;50657;48.830;2.282;2022-09-27T10:56:21;23.50;45.60
47354;DHT22;50657;48.830;2.282;2022-09-27T10:58:50;23.50;45.70
47354;DHT22;50657;48.830;2.282;2022-09-27T11:01:19;23.50;45.80
47354;DHT22;50657;48.830;2.282;2022-09-27T11:04:18;23.50;45.90
47354;DHT22;50657;48.830;2.282;2022-09-27T11:06:46;23.40;46.00
47354;DHT22;50657;48.830;2.282;2022-09-27T11:09:20;23.40;46.00
47354;DHT22;50657;48.830;2.282;2022-09-27T11:12:06;23.40;46.10
47354;DHT22;50657;48.830;2.282;2022-09-27T11:14:35;23.40;46.20
47354;DHT22;50657;48.830;2.282;2022-09-27T11:17:09;23.40;46.30
47354;DHT22;50657;48.830;2.282;2022-09-27T11:19:56;23.40;46.90
47354;DHT22;50657;48.830;2.282;2022-09-27T11:22:44;23.40;46.50
47354;DHT22;50657;48.830;2.282;2022-09-27T11:25:28;23.30;46.40
47354;DHT22;50657;48.830;2.282;2022-09-27T11:28:05;23.30;46.50
47354;DHT22;50657;48.830;2.282;2022-09-27T11:30:46;23.30;46.60
47354;DHT22;50657;48.830;2.282;2022-09-27T11:33:47;23.30;46.70
47354;DHT22;50657;48.830;2.282;2022-09-27T11:36:32;23.20;46.70
47354;DHT22;50657;48.830;2.282;2022-09-27T11:39:08;23.20;47.40
47354;DHT22;50657;48.830;2.282;2022-09-27T11:41:48;23.20;47.00
47354;DHT22;50657;48.830;2.282;2022-09-27T11:44:37;23.20;47.10
47354;DHT22;50657;48.830;2.282;2022-09-27T11:47:15;23.20;47.20
47354;DHT22;50657;48.830;2.282;2022-09-27T11:50:18;23.10;47.10
47354;DHT22;50657;48.830;2.282;2022-09-27T11:52:59;23.20;47.10
47354;DHT22;50657;48.830;2.282;2022-09-27T11:55:41;23.20;47.30
47354;DHT22;50657;48.830;2.282;2022-09-27T11:58:19;23.20;47.20
47354;DHT22;50657;48.830;2.282;2022-09-27T12:00:57;23.20;47.30
47354;DHT22;50657;48.830;2.282;2022-09-27T12:04:00;23.30;47.50
47354;DHT22;50657;48.830;2.282;2022-09-27T12:06:38;23.30;47.50
47354;DHT22;50657;48.830;2.282;2022-09-27T12:09:10;23.30;47.90
47354;DHT22;50657;48.830;2.282;2022-09-27T12:11:40;23.30;48.00
47354;DHT22;50657;48.830;2.282;2022-09-27T12:14:15;23.40;48.30
47354;DHT22;50657;48.830;2.282;2022-09-27T12:16:47;23.50;48.50
47354;DHT22;50657;48.830;2.282;2022-09-27T12:19:21;23.50;48.50
47354;DHT22;50657;48.830;2.282;2022-09-27T12:22:02;23.60;48.50
47354;DHT22;50657;48.830;2.282;2022-09-27T12:24:34;23.60;48.40
47354;DHT22;50657;48.830;2.282;2022-09-27T12:27:14;23.70;48.30
47354;DHT22;50657;48.830;2.282;2022-09-27T12:29:44;23.70;48.20
47354;DHT22;50657;48.830;2.282;2022-09-27T12:32:15;23.70;48.00
47354;DHT22;50657;48.830;2.282;2022-09-27T12:34:52;23.70;48.10
47354;DHT22;50657;48.830;2.282;2022-09-27T12:37:24;23.80;48.20
47354;DHT22;50657;48.830;2.282;2022-09-27T12:39:57;23.80;48.10
47354;DHT22;50657;48.830;2.282;2022-09-27T12:42:33;23.90;48.10
47354;DHT22;50657;48.830;2.282;2022-09-27T12:45:10;23.90;47.90
47354;DHT22;50657;48.830;2.282;2022-09-27T12:47:55;23.90;47.90
47354;DHT22;50657;48.830;2.282;2022-09-27T12:50:33;24.00;47.90
47354;DHT22;50657;48.830;2.282;2022-09-27T12:53:04;24.00;47.90
47354;DHT22;50657;48.830;2.282;2022-09-27T12:58:51;24.10;47.90
47354;DHT22;50657;48.830;2.282;2022-09-27T13:01:38;24.20;47.90
47354;DHT22;50657;48.830;2.282;2022-09-27T13:04:24;24.30;47.90
47354;DHT22;50657;48.830;2.282;2022-09-27T13:07:21;24.30;48.30
47354;DHT22;50657;48.830;2.282;2022-09-27T13:12:40;24.40;47.50
47354;DHT22;50657;48.830;2.282;2022-09-27T13:15:19;24.40;47.40
47354;DHT22;50657;48.830;2.282;2022-09-27T13:17:53;24.40;47.20
47354;DHT22;50657;48.830;2.282;2022-09-27T13:20:43;24.50;47.10
47354;DHT22;50657;48.830;2.282;2022-09-27T13:23:57;24.50;47.00
47354;DHT22;50657;48.830;2.282;2022-09-27T13:26:48;24.60;46.80
47354;DHT22;50657;48.830;2.282;2022-09-27T13:29:30;24.60;46.70
47354;DHT22;50657;48.830;2.282;2022-09-27T13:32:18;24.60;46.60
47354;DHT22;50657;48.830;2.282;2022-09-27T13:35:22;24.60;46.50
47354;DHT22;50657;48.830;2.282;2022-09-27T13:37:56;24.60;46.40
47354;DHT22;50657;48.830;2.282;2022-09-27T13:41:12;24.60;46.40
47354;DHT22;50657;48.830;2.282;2022-09-27T13:44:02;24.70;46.30
47354;DHT22;50657;48.830;2.282;2022-09-27T13:46:46;24.70;46.30
47354;DHT22;50657;48.830;2.282;2022-09-27T13:49:19;24.70;46.30
47354;DHT22;50657;48.830;2.282;2022-09-27T13:52:18;24.70;46.20
47354;DHT22;50657;48.830;2.282;2022-09-27T13:54:53;24.70;46.20
47354;DHT22;50657;48.830;2.282;2022-09-27T13:57:50;24.70;46.20
47354;DHT22;50657;48.830;2.282;2022-09-27T14:00:26;24.70;46.10
47354;DHT22;50657;48.830;2.282;2022-09-27T14:03:00;24.70;46.20
47354;DHT22;50657;48.830;2.282;2022-09-27T14:05:33;24.70;46.10
47354;DHT22;50657;48.830;2.282;2022-09-27T14:08:04;24.70;46.10
47354;DHT22;50657;48.830;2.282;2022-09-27T14:10:34;24.70;46.00
47354;DHT22;50657;48.830;2.282;2022-09-27T14:13:04;24.80;46.00
47354;DHT22;50657;48.830;2.282;2022-09-27T14:15:37;24.80;45.90
47354;DHT22;50657;48.830;2.282;2022-09-27T14:18:04;24.80;45.90
47354;DHT22;50657;48.830;2.282;2022-09-27T14:20:38;24.80;45.90
47354;DHT22;50657;48.830;2.282;2022-09-27T14:23:15;24.80;45.80
47354;DHT22;50657;48.830;2.282;2022-09-27T14:25:45;24.80;45.80
47354;DHT22;50657;48.830;2.282;2022-09-27T14:28:22;24.80;46.20
47354;DHT22;50657;48.830;2.282;2022-09-27T14:31:18;24.80;45.90
47354;DHT22;50657;48.830;2.282;2022-09-27T14:34:17;24.80;45.80
47354;DHT22;50657;48.830;2.282;2022-09-27T14:36:47;24.70;45.80
47354;DHT22;50657;48.830;2.282;2022-09-27T14:39:42;24.70;45.80
47354;DHT22;50657;48.830;2.282;2022-09-27T14:42:27;24.60;45.80
47354;DHT22;50657;48.830;2.282;2022-09-27T14:45:04;24.60;45.90
47354;DHT22;50657;48.830;2.282;2022-09-27T14:47:32;24.50;45.90
47354;DHT22;50657;48.830;2.282;2022-09-27T14:50:00;24.50;46.00
47354;DHT22;50657;48.830;2.282;2022-09-27T14:52:34;24.40;46.00
47354;DHT22;50657;48.830;2.282;2022-09-27T14:55:06;24.40;46.00
47354;DHT22;50657;48.830;2.282;2022-09-27T14:57:34;24.40;46.10
47354;DHT22;50657;48.830;2.282;2022-09-27T15:00:16;24.40;46.30
47354;DHT22;50657;48.830;2.282;2022-09-27T15:02:45;24.30;46.40
47354;DHT22;50657;48.830;2.282;2022-09-27T15:05:14;24.30;46.50
47354;DHT22;50657;48.830;2.282;2022-09-27T15:07:43;24.30;46.70
47354;DHT22;50657;48.830;2.282;2022-09-27T15:10:13;24.30;46.70
47354;DHT22;50657;48.830;2.282;2022-09-27T15:12:43;24.30;46.80
47354;DHT22;50657;48.830;2.282;2022-09-27T15:15:17;24.40;46.90
47354;DHT22;50657;48.830;2.282;2022-09-27T15:17:45;24.40;46.90
47354;DHT22;50657;48.830;2.282;2022-09-27T15:20:22;24.40;46.90
47354;DHT22;50657;48.830;2.282;2022-09-27T15:22:52;24.50;46.80
47354;DHT22;50657;48.830;2.282;2022-09-27T15:25:24;24.40;46.80
47354;DHT22;50657;48.830;2.282;2022-09-27T15:27:58;24.40;46.70
47354;DHT22;50657;48.830;2.282;2022-09-27T15:30:32;24.50;46.70
47354;DHT22;50657;48.830;2.282;2022-09-27T15:33:00;24.50;46.70
47354;DHT22;50657;48.830;2.282;2022-09-27T15:35:29;24.40;46.60
47354;DHT22;50657;48.830;2.282;2022-09-27T15:38:21;24.40;46.60
47354;DHT22;50657;48.830;2.282;2022-09-27T15:41:04;24.50;46.50
47354;DHT22;50657;48.830;2.282;2022-09-27T15:43:35;24.40;46.50
47354;DHT22;50657;48.830;2.282;2022-09-27T15:46:28;24.40;46.60
47354;DHT22;50657;48.830;2.282;2022-09-27T15:49:22;24.40;46.60
47354;DHT22;50657;48.830;2.282;2022-09-27T15:51:53;24.40;46.70
47354;DHT22;50657;48.830;2.282;2022-09-27T15:54:22;24.40;46.20
47354;DHT22;50657;48.830;2.282;2022-09-27T15:56:51;24.20;45.70
47354;DHT22;50657;48.830;2.282;2022-09-27T15:59:20;23.90;45.70
47354;DHT22;50657;48.830;2.282;2022-09-27T16:01:50;23.70;46.10
47354;DHT22;50657;48.830;2.282;2022-09-27T16:04:17;23.40;46.40
47354;DHT22;50657;48.830;2.282;2022-09-27T16:06:44;23.10;47.40
47354;DHT22;50657;48.830;2.282;2022-09-27T16:09:14;22.90;47.20
47354;DHT22;50657;48.830;2.282;2022-09-27T16:11:43;22.70;47.70
47354;DHT22;50657;48.830;2.282;2022-09-27T16:14:10;22.40;48.00
47354;DHT22;50657;48.830;2.282;2022-09-27T16:16:41;22.30;48.50
47354;DHT22;50657;48.830;2.282;2022-09-27T16:19:10;22.10;48.90
47354;DHT22;50657;48.830;2.282;2022-09-27T16:21:37;22.00;49.40
47354;DHT22;50657;48.830;2.282;2022-09-27T16:24:05;21.80;49.60
47354;DHT22;50657;48.830;2.282;2022-09-27T16:26:32;21.70;49.80
47354;DHT22;50657;48.830;2.282;2022-09-27T16:28:59;21.50;50.00
47354;DHT22;50657;48.830;2.282;2022-09-27T16:31:26;21.40;50.70
47354;DHT22;50657;48.830;2.282;2022-09-27T16:33:53;21.40;50.20